Time;durP1;ratioP1;P1;durP2;ratioP2;P2;SDS_P1;SDS_P2;PMS_P1;PMS_P2;Temp;Humidity;BMP_temperature;BMP_pressure;BME280_temperature;BME280_humidity;BME280_pressure;Samples;Min_cycle;Max_cycle;Signal;HPM_P1;HPM_P2
2022/09/14 00:00:20;;;;;;;;;;;;;;;18.58;73.69;100805.56;4967570;28;19945;-62
2022/09/14 00:02:46;;;;;;;;;;;;;;;18.55;74.05;100792.41;4974927;28;19958;-62
2022/09/14 00:05:12;;;;;;;;;;;;;;;18.52;74.00;100795.03;4971930;28;19917;-62
2022/09/14 00:07:37;;;;;;;;;;;;;;;18.49;74.14;100787.16;4976524;28;19922;-59
2022/09/14 00:10:02;;;;;;;;;;;;;;;18.48;73.94;100793.34;4975906;28;20302;-59
2022/09/14 00:12:28;;;;;;;;;;;;;;;18.47;73.91;100780.19;4972354;28;20017;-60
2022/09/14 00:14:53;;;;;;;;;;;;;;;18.44;74.19;100775.78;4973632;28;19918;-61
2022/09/14 00:17:18;;;;;;;;;;;;;;;18.43;74.39;100768.75;4971831;28;19917;-60
2022/09/14 00:19:43;;;;;;;;;;;;;;;18.40;74.52;100761.75;4975635;28;19913;-61
2022/09/14 00:22:08;;;;;;;;;;;;;;;18.38;74.38;100765.31;4974937;28;19921;-60
2022/09/14 00:24:34;;;;;;;;;;;;;;;18.36;74.70;100761.78;4982825;28;19925;-61
2022/09/14 00:26:59;;;;;;;;;;;;;;;18.34;74.93;100766.22;4976928;28;20101;-64
2022/09/14 00:29:25;;;;;;;;;;;;;;;18.32;74.84;100762.72;4976481;28;19920;-65
2022/09/14 00:31:50;;;;;;;;;;;;;;;18.30;74.76;100761.88;4956800;28;19914;-65
2022/09/14 00:34:16;;;;;;;;;;;;;;;18.27;74.68;100759.25;4978149;28;19921;-64
2022/09/14 00:36:43;;;;;;;;;;;;;;;18.23;74.67;100767.22;4972631;28;19914;-64
2022/09/14 00:39:09;;;;;;;;;;;;;;;18.21;74.75;100754.91;4973193;28;20321;-65
2022/09/14 00:41:38;;;;;;;;;;;;;;;18.18;74.67;100752.31;4967920;28;20397;-65
2022/09/14 00:44:26;;;;;;;;;;;;;;;18.16;74.79;100752.31;4961538;28;20562;-64
2022/09/14 00:46:53;;;;;;;;;;;;;;;18.12;74.84;100742.69;4973357;28;19961;-65
2022/09/14 00:49:18;;;;;;;;;;;;;;;18.11;74.83;100740.06;4976429;28;20316;-65
2022/09/14 00:51:50;;;;;;;;;;;;;;;18.08;75.10;100741.84;4971310;28;19918;-65
2022/09/14 00:54:15;;;;;;;;;;;;;;;18.07;75.15;100739.22;4972726;28;19925;-65
2022/09/14 00:56:40;;;;;;;;;;;;;;;18.02;75.20;100728.72;4971930;28;19918;-64
2022/09/14 00:59:10;;;;;;;;;;;;;;;18.01;75.50;100723.47;4979167;28;19942;-64
2022/09/14 01:01:36;;;;;;;;;;;;;;;17.98;75.31;100716.44;4988155;28;19921;-65
2022/09/14 01:04:01;;;;;;;;;;;;;;;17.96;75.12;100725.25;4976090;28;20301;-65
2022/09/14 01:06:34;;;;;;;;;;;;;;;17.94;75.60;100720.00;4969024;28;20286;-65
2022/09/14 01:09:08;;;;;;;;;;;;;;;17.92;75.65;100719.13;4980900;28;20399;-65
2022/09/14 01:11:42;;;;;;;;;;;;;;;17.90;75.58;100705.97;4984221;28;20337;-65
2022/09/14 01:14:25;;;;;;;;;;;;;;;17.88;75.52;100704.19;4970141;28;19992;-65
2022/09/14 01:17:05;;;;;;;;;;;;;;;17.86;75.81;100704.22;4974999;28;19937;-65
2022/09/14 01:19:40;;;;;;;;;;;;;;;17.83;76.05;100698.09;4970411;28;20078;-64
2022/09/14 01:22:11;;;;;;;;;;;;;;;17.80;76.43;100701.63;4972961;28;20090;-65
2022/09/14 01:24:43;;;;;;;;;;;;;;;17.75;76.27;100692.88;4980104;28;20667;-64
2022/09/14 01:27:34;;;;;;;;;;;;;;;17.73;76.37;100694.69;4978268;28;20061;-60
2022/09/14 01:29:59;;;;;;;;;;;;;;;17.70;76.02;100702.59;4968358;28;19917;-61
2022/09/14 01:32:31;;;;;;;;;;;;;;;17.68;76.10;100701.72;4980990;28;19916;-60
2022/09/14 01:35:16;;;;;;;;;;;;;;;17.65;76.12;100704.41;4968301;28;19918;-60
2022/09/14 01:37:49;;;;;;;;;;;;;;;17.62;76.43;100715.81;4976537;28;20610;-61
2022/09/14 01:40:27;;;;;;;;;;;;;;;17.59;76.38;100705.31;4973906;28;20061;-60
2022/09/14 01:42:55;;;;;;;;;;;;;;;17.56;76.25;100703.56;4951551;28;19994;-60
2022/09/14 01:45:22;;;;;;;;;;;;;;;17.54;76.00;100702.72;4974241;28;20004;-60
2022/09/14 01:47:53;;;;;;;;;;;;;;;17.49;76.29;100701.88;4964319;28;20000;-60
2022/09/14 01:50:27;;;;;;;;;;;;;;;17.48;76.30;100702.78;4982650;28;19920;-61
2022/09/14 01:52:58;;;;;;;;;;;;;;;17.44;76.33;100694.88;4969497;28;20398;-60
2022/09/14 01:55:26;;;;;;;;;;;;;;;17.43;76.46;100685.25;4974230;28;19922;-61
2022/09/14 01:58:08;;;;;;;;;;;;;;;17.41;76.48;100681.72;4976219;28;19918;-61
2022/09/14 02:00:34;;;;;;;;;;;;;;;17.37;76.57;100684.41;4951681;28;20377;-60
2022/09/14 02:03:04;;;;;;;;;;;;;;;17.36;76.44;100694.94;4975300;28;19914;-60
2022/09/14 02:05:35;;;;;;;;;;;;;;;17.33;76.57;100687.94;4985531;28;19921;-61
2022/09/14 02:08:01;;;;;;;;;;;;;;;17.32;76.15;100683.56;4960182;28;20341;-61
2022/09/14 02:10:26;;;;;;;;;;;;;;;17.31;76.38;100680.94;4976138;28;19913;-60
2022/09/14 02:12:52;;;;;;;;;;;;;;;17.30;76.72;100681.81;4973076;28;19918;-61
2022/09/14 02:15:17;;;;;;;;;;;;;;;17.28;76.21;100683.56;4967225;28;20059;-61
2022/09/14 02:17:43;;;;;;;;;;;;;;;17.27;76.48;100689.75;4968513;28;20397;-61
2022/09/14 02:20:17;;;;;;;;;;;;;;;17.25;76.71;100694.13;4985840;28;19964;-60
2022/09/14 02:22:42;;;;;;;;;;;;;;;17.20;76.22;100686.28;4982822;28;19924;-61
2022/09/14 02:25:08;;;;;;;;;;;;;;;17.17;76.36;100681.88;4984571;28;19918;-61
2022/09/14 02:27:33;;;;;;;;;;;;;;;17.14;76.71;100686.31;4969046;28;19918;-61
2022/09/14 02:29:58;;;;;;;;;;;;;;;17.12;76.72;100683.69;4969155;28;19918;-61
2022/09/14 02:32:30;;;;;;;;;;;;;;;17.10;76.85;100690.72;4966530;28;19921;-61
2022/09/14 02:35:17;;;;;;;;;;;;;;;17.08;76.54;100681.97;4987838;28;19926;-61
2022/09/14 02:37:45;;;;;;;;;;;;;;;17.07;76.53;100693.34;4968193;28;19921;-64
2022/09/14 02:40:36;;;;;;;;;;;;;;;17.06;76.58;100682.84;4972850;28;20004;-65
2022/09/14 02:43:11;;;;;;;;;;;;;;;17.03;76.92;100691.63;4969310;28;20279;-64
2022/09/14 02:45:55;;;;;;;;;;;;;;;17.03;76.84;100694.25;4974331;28;19918;-64
2022/09/14 02:48:28;;;;;;;;;;;;;;;17.00;76.77;100683.75;4975799;28;19914;-64
2022/09/14 02:51:02;;;;;;;;;;;;;;;16.98;76.62;100681.13;4973989;28;19969;-65
2022/09/14 02:53:48;;;;;;;;;;;;;;;16.97;76.84;100691.66;4978006;28;19922;-64
2022/09/14 02:56:14;;;;;;;;;;;;;;;16.94;76.98;100682.03;4986177;28;20012;-64
2022/09/14 02:58:41;;;;;;;;;;;;;;;16.94;76.83;100686.41;4977675;28;19914;-64
2022/09/14 03:01:07;;;;;;;;;;;;;;;16.93;77.26;100684.66;4970702;28;20266;-65
2022/09/14 03:03:33;;;;;;;;;;;;;;;16.91;76.93;100679.41;4967424;28;19965;-64
2022/09/14 03:05:58;;;;;;;;;;;;;;;16.90;77.40;100671.53;4971541;28;19921;-65
2022/09/14 03:08:26;;;;;;;;;;;;;;;16.88;77.32;100668.03;4971211;28;19967;-64
2022/09/14 03:10:51;;;;;;;;;;;;;;;16.88;77.35;100665.41;4968060;28;19922;-64
2022/09/14 03:13:16;;;;;;;;;;;;;;;16.88;77.51;100662.78;4969962;28;20301;-64
2022/09/14 03:15:42;;;;;;;;;;;;;;;16.86;77.33;100662.75;4979633;28;19918;-65
2022/09/14 03:18:07;;;;;;;;;;;;;;;16.85;77.52;100663.63;4970514;28;19996;-64
2022/09/14 03:20:33;;;;;;;;;;;;;;;16.83;77.73;100665.41;4965954;28;19918;-65
2022/09/14 03:22:58;;;;;;;;;;;;;;;16.81;77.45;100668.00;4966245;28;20337;-65
2022/09/14 03:25:24;;;;;;;;;;;;;;;16.79;77.40;100658.41;4972738;28;20377;-65
2022/09/14 03:27:50;;;;;;;;;;;;;;;16.78;77.56;100656.66;4970433;28;19976;-65
2022/09/14 03:30:15;;;;;;;;;;;;;;;16.76;77.58;100656.66;4968248;28;19918;-65
2022/09/14 03:32:40;;;;;;;;;;;;;;;16.76;77.45;100653.16;4969447;28;20374;-66
2022/09/14 03:35:06;;;;;;;;;;;;;;;16.76;77.80;100648.75;4966240;28;20291;-65
2022/09/14 03:37:35;;;;;;;;;;;;;;;16.74;77.61;100642.63;4962672;28;20309;-65
2022/09/14 03:40:00;;;;;;;;;;;;;;;16.72;77.98;100636.50;4979361;28;19914;-65
2022/09/14 03:42:25;;;;;;;;;;;;;;;16.69;78.06;100633.88;4974150;28;19940;-65
2022/09/14 03:44:51;;;;;;;;;;;;;;;16.66;78.09;100632.13;4962550;28;19910;-65
2022/09/14 03:47:16;;;;;;;;;;;;;;;16.64;77.70;100631.28;4965187;28;19925;-65
2022/09/14 03:49:41;;;;;;;;;;;;;;;16.64;78.15;100630.38;4972043;28;19957;-65
2022/09/14 03:52:06;;;;;;;;;;;;;;;16.60;77.94;100632.19;4975087;28;19917;-66
2022/09/14 03:54:32;;;;;;;;;;;;;;;16.60;78.31;100629.56;4974725;28;20696;-65
2022/09/14 03:56:57;;;;;;;;;;;;;;;16.58;78.40;100633.91;4973493;28;19987;-65
2022/09/14 03:59:22;;;;;;;;;;;;;;;16.56;78.41;100626.94;4967896;28;20360;-65
2022/09/14 04:01:47;;;;;;;;;;;;;;;16.55;78.20;100626.06;4956893;28;20362;-64
2022/09/14 04:04:13;;;;;;;;;;;;;;;16.54;78.40;100624.31;4967411;28;19918;-64
2022/09/14 04:06:38;;;;;;;;;;;;;;;16.55;78.21;100625.19;4953291;28;20544;-61
2022/09/14 04:09:03;;;;;;;;;;;;;;;16.53;78.31;100619.94;4974881;28;20858;-61
2022/09/14 04:11:30;;;;;;;;;;;;;;;16.51;78.41;100622.56;4980093;28;19925;-61
2022/09/14 04:13:59;;;;;;;;;;;;;;;16.50;78.50;100620.81;4972979;28;20443;-61
2022/09/14 04:16:24;;;;;;;;;;;;;;;16.48;78.50;100614.69;4972156;28;19968;-61
2022/09/14 04:18:49;;;;;;;;;;;;;;;16.47;78.37;100620.84;4970744;28;20427;-61
2022/09/14 04:21:16;;;;;;;;;;;;;;;16.44;78.48;100606.84;4977518;28;20361;-60
2022/09/14 04:23:41;;;;;;;;;;;;;;;16.43;78.24;100615.59;4971597;28;19960;-61
2022/09/14 04:26:11;;;;;;;;;;;;;;;16.41;78.52;100615.59;4974609;28;19949;-61
2022/09/14 04:28:36;;;;;;;;;;;;;;;16.40;78.25;100613.00;4966116;28;19917;-61
2022/09/14 04:31:01;;;;;;;;;;;;;;;16.37;78.46;100608.59;4972311;28;19918;-61
2022/09/14 04:33:30;;;;;;;;;;;;;;;16.34;78.44;100606.00;4976970;28;19961;-61
2022/09/14 04:36:00;;;;;;;;;;;;;;;16.34;78.68;100613.88;4973631;28;19913;-61
2022/09/14 04:38:26;;;;;;;;;;;;;;;16.33;78.66;100601.59;4979132;28;20284;-61
2022/09/14 04:40:51;;;;;;;;;;;;;;;16.32;78.46;100608.63;4973848;28;20375;-61
2022/09/14 04:43:16;;;;;;;;;;;;;;;16.29;78.56;100608.66;4973978;28;19964;-62
2022/09/14 04:45:42;;;;;;;;;;;;;;;16.26;77.91;100599.88;4977832;28;19921;-62
2022/09/14 04:48:07;;;;;;;;;;;;;;;16.22;78.12;100608.66;4977275;28;20069;-61
2022/09/14 04:50:32;;;;;;;;;;;;;;;16.19;78.37;100598.16;4969919;28;19992;-61
2022/09/14 04:52:57;;;;;;;;;;;;;;;16.17;78.20;100601.66;4974700;28;19917;-61
2022/09/14 04:55:23;;;;;;;;;;;;;;;16.15;78.14;100589.41;4984833;28;19924;-61
2022/09/14 04:57:48;;;;;;;;;;;;;;;16.11;78.28;100592.94;4981204;28;19922;-61
2022/09/14 05:00:14;;;;;;;;;;;;;;;16.09;78.37;100587.69;4967596;28;20448;-61
2022/09/14 05:02:40;;;;;;;;;;;;;;;16.08;78.41;100583.31;4975550;28;19920;-61
2022/09/14 05:05:05;;;;;;;;;;;;;;;16.09;78.75;100574.53;4979633;28;19984;-61
2022/09/14 05:07:31;;;;;;;;;;;;;;;16.07;78.73;100578.91;4975220;28;19918;-61
2022/09/14 05:09:56;;;;;;;;;;;;;;;16.04;78.62;100578.94;4979256;28;19913;-61
2022/09/14 05:12:21;;;;;;;;;;;;;;;16.01;78.53;100578.06;4985234;28;19914;-61
2022/09/14 05:14:46;;;;;;;;;;;;;;;16.00;79.12;100569.28;4971482;28;19922;-61
2022/09/14 05:17:11;;;;;;;;;;;;;;;16.01;79.09;100563.19;4972082;28;20068;-60
2022/09/14 05:19:37;;;;;;;;;;;;;;;16.01;79.18;100571.06;4970292;28;19916;-60
2022/09/14 05:22:02;;;;;;;;;;;;;;;16.02;78.75;100574.53;4974632;28;20366;-61
2022/09/14 05:24:27;;;;;;;;;;;;;;;16.01;79.17;100576.31;4972007;28;19964;-60
2022/09/14 05:26:53;;;;;;;;;;;;;;;16.02;78.95;100575.44;4979152;28;20321;-60
2022/09/14 05:29:18;;;;;;;;;;;;;;;16.03;79.33;100584.19;4975393;28;20085;-61
2022/09/14 05:31:44;;;;;;;;;;;;;;;16.03;79.07;100590.31;4977663;28;19922;-61
2022/09/14 05:34:09;;;;;;;;;;;;;;;16.04;79.13;100591.22;4974297;28;20008;-61
2022/09/14 05:36:35;;;;;;;;;;;;;;;16.04;79.06;100592.06;4977448;28;20392;-60
2022/09/14 05:39:00;;;;;;;;;;;;;;;16.03;79.18;100587.69;4967633;28;19946;-61
2022/09/14 05:41:25;;;;;;;;;;;;;;;16.05;79.64;100590.31;4973855;28;19969;-61
2022/09/14 05:43:50;;;;;;;;;;;;;;;16.04;79.61;100591.22;4971292;28;19945;-61
2022/09/14 05:46:19;;;;;;;;;;;;;;;16.04;79.50;100594.69;4972504;28;19918;-61
2022/09/14 05:48:44;;;;;;;;;;;;;;;16.02;79.15;100588.59;4977371;28;20402;-60
2022/09/14 05:51:12;;;;;;;;;;;;;;;16.02;79.69;100591.22;4971482;28;19973;-61
2022/09/14 05:53:37;;;;;;;;;;;;;;;16.01;79.54;100594.72;4964343;28;19957;-61
2022/09/14 05:56:03;;;;;;;;;;;;;;;16.02;79.46;100585.97;4966477;28;19925;-62
2022/09/14 05:58:28;;;;;;;;;;;;;;;16.03;79.67;100594.69;4963654;28;19922;-62
2022/09/14 06:00:54;;;;;;;;;;;;;;;16.02;79.34;100593.84;4967131;28;19918;-60
2022/09/14 06:03:19;;;;;;;;;;;;;;;16.01;79.61;100594.72;4968186;28;20457;-61
2022/09/14 06:05:44;;;;;;;;;;;;;;;16.01;79.59;100602.59;4968946;28;19956;-60
2022/09/14 06:08:10;;;;;;;;;;;;;;;16.00;79.96;100598.22;4977541;28;20456;-63
2022/09/14 06:10:35;;;;;;;;;;;;;;;16.02;79.73;100606.97;4968024;28;20321;-61
2022/09/14 06:13:00;;;;;;;;;;;;;;;16.02;79.98;100604.34;4969981;28;19928;-61
2022/09/14 06:15:26;;;;;;;;;;;;;;;16.02;79.59;100606.09;4975931;28;20393;-61
2022/09/14 06:17:52;;;;;;;;;;;;;;;16.01;79.88;100604.34;4987267;28;19968;-65
2022/09/14 06:20:17;;;;;;;;;;;;;;;16.00;80.09;100608.72;4973983;28;19918;-65
2022/09/14 06:22:43;;;;;;;;;;;;;;;15.99;80.23;100607.00;4980287;28;20288;-65
2022/09/14 06:25:10;;;;;;;;;;;;;;;15.97;80.01;100608.72;4987226;28;20016;-65
2022/09/14 06:27:36;;;;;;;;;;;;;;;15.96;80.10;100609.59;4980210;28;19918;-64
2022/09/14 06:30:01;;;;;;;;;;;;;;;15.94;80.38;100609.59;4970397;28;19910;-64
2022/09/14 06:32:28;;;;;;;;;;;;;;;15.94;79.93;100609.59;4977466;28;19914;-64
2022/09/14 06:34:54;;;;;;;;;;;;;;;15.95;80.17;100610.50;4964440;28;19953;-65
2022/09/14 06:37:19;;;;;;;;;;;;;;;15.95;80.46;100606.09;4978427;28;19913;-64
2022/09/14 06:39:44;;;;;;;;;;;;;;;15.94;80.04;100598.22;4971453;28;19914;-64
2022/09/14 06:42:09;;;;;;;;;;;;;;;15.92;80.18;100603.50;4983765;28;19929;-64
2022/09/14 06:44:35;;;;;;;;;;;;;;;15.86;80.21;100589.47;4972201;28;20386;-64
2022/09/14 06:47:00;;;;;;;;;;;;;;;15.81;80.01;100585.13;4979379;28;19913;-61
2022/09/14 06:49:25;;;;;;;;;;;;;;;15.77;80.10;100586.00;4969563;28;19914;-61
2022/09/14 06:51:53;;;;;;;;;;;;;;;15.77;80.06;100583.34;4965731;28;20004;-61
2022/09/14 06:54:18;;;;;;;;;;;;;;;15.75;80.16;100574.59;4964181;28;19925;-61
2022/09/14 06:56:44;;;;;;;;;;;;;;;15.75;80.61;100581.59;4973682;28;19954;-61
2022/09/14 06:59:11;;;;;;;;;;;;;;;15.72;80.28;100577.22;4967202;28;19914;-61
2022/09/14 07:01:37;;;;;;;;;;;;;;;15.72;80.64;100577.22;4979842;28;19918;-61
2022/09/14 07:04:02;;;;;;;;;;;;;;;15.70;80.42;100573.75;4969445;28;20389;-61
2022/09/14 07:06:30;;;;;;;;;;;;;;;15.70;80.50;100576.38;4973706;28;19920;-62
2022/09/14 07:08:55;;;;;;;;;;;;;;;15.72;80.46;100576.38;4969036;28;19953;-62
2022/09/14 07:11:22;;;;;;;;;;;;;;;15.71;80.60;100579.84;4985114;28;20598;-62
2022/09/14 07:13:47;;;;;;;;;;;;;;;15.71;80.82;100575.47;4972878;28;19929;-62
2022/09/14 07:16:14;;;;;;;;;;;;;;;15.72;80.69;100579.84;4981179;28;19990;-62
2022/09/14 07:18:39;;;;;;;;;;;;;;;15.72;80.61;100566.72;4988995;28;19914;-62
2022/09/14 07:21:09;;;;;;;;;;;;;;;15.73;80.63;100563.22;4978316;28;19918;-61
2022/09/14 07:23:35;;;;;;;;;;;;;;;15.73;80.56;100565.84;4978355;28;19936;-61
2022/09/14 07:26:01;;;;;;;;;;;;;;;15.73;80.98;100563.22;4984181;28;19910;-62
2022/09/14 07:28:27;;;;;;;;;;;;;;;15.72;80.98;100569.34;4972734;28;19922;-62
2022/09/14 07:30:52;;;;;;;;;;;;;;;15.70;80.53;100564.97;4963937;28;20337;-61
2022/09/14 07:33:17;;;;;;;;;;;;;;;15.68;80.82;100564.97;4983821;28;19998;-61
2022/09/14 07:35:42;;;;;;;;;;;;;;;15.67;80.75;100565.88;4985025;28;19916;-62
2022/09/14 07:38:08;;;;;;;;;;;;;;;15.64;80.98;100564.13;4982410;28;20332;-61
2022/09/14 07:40:33;;;;;;;;;;;;;;;15.64;80.97;100568.47;4974321;28;19918;-61
2022/09/14 07:43:00;;;;;;;;;;;;;;;15.63;80.68;100561.50;4975437;28;19921;-61
2022/09/14 07:45:25;;;;;;;;;;;;;;;15.61;80.94;100564.13;4974197;28;19921;-61
2022/09/14 07:47:51;;;;;;;;;;;;;;;15.62;81.33;100565.84;4981164;28;19910;-61
2022/09/14 07:50:17;;;;;;;;;;;;;;;15.63;81.30;100569.38;4982473;28;20019;-62
2022/09/14 07:52:42;;;;;;;;;;;;;;;15.65;81.38;100567.59;4983316;28;19914;-61
2022/09/14 07:55:08;;;;;;;;;;;;;;;15.66;81.40;100556.22;4984740;28;19940;-62
2022/09/14 07:57:33;;;;;;;;;;;;;;;15.67;81.79;100563.25;4983355;28;19937;-61
2022/09/14 07:59:58;;;;;;;;;;;;;;;15.68;82.16;100559.72;4953374;28;20345;-61
2022/09/14 08:02:24;;;;;;;;;;;;;;;15.67;81.80;100567.59;4972400;28;20010;-61
2022/09/14 08:04:51;;;;;;;;;;;;;;;15.67;81.97;100568.50;4987964;28;20466;-61
2022/09/14 08:07:17;;;;;;;;;;;;;;;15.68;81.82;100562.34;4958613;28;19936;-61
2022/09/14 08:09:42;;;;;;;;;;;;;;;15.67;81.60;100558.00;4981410;28;20388;-60
2022/09/14 08:12:07;;;;;;;;;;;;;;;15.67;81.92;100555.38;4975034;28;19961;-61
2022/09/14 08:14:32;;;;;;;;;;;;;;;15.69;82.11;100565.88;4984370;28;19921;-60
2022/09/14 08:16:59;;;;;;;;;;;;;;;15.70;82.02;100557.09;4984960;28;19918;-60
2022/09/14 08:19:25;;;;;;;;;;;;;;;15.71;82.18;100557.06;4970193;28;19924;-60
2022/09/14 08:21:50;;;;;;;;;;;;;;;15.70;80.92;100554.47;4980038;28;19906;-61
2022/09/14 08:24:17;;;;;;;;;;;;;;;15.67;81.88;100558.00;4986745;28;19918;-61
2022/09/14 08:26:42;;;;;;;;;;;;;;;15.64;82.20;100553.59;4978352;28;19914;-61
2022/09/14 08:29:07;;;;;;;;;;;;;;;15.65;82.08;100551.84;4975653;28;19922;-60
2022/09/14 08:31:35;;;;;;;;;;;;;;;15.67;82.20;100555.38;4973500;28;19914;-61
2022/09/14 08:34:01;;;;;;;;;;;;;;;15.66;82.49;100558.84;4984369;28;20271;-61
2022/09/14 08:36:28;;;;;;;;;;;;;;;15.66;82.06;100556.22;4981162;28;20437;-61
2022/09/14 08:38:54;;;;;;;;;;;;;;;15.68;82.09;100567.59;4983470;28;19914;-61
2022/09/14 08:41:27;;;;;;;;;;;;;;;15.70;82.46;100563.22;4985433;28;19917;-60
2022/09/14 08:43:53;;;;;;;;;;;;;;;15.72;82.51;100565.84;4985916;28;19914;-60
2022/09/14 08:46:26;;;;;;;;;;;;;;;15.74;82.56;100564.09;4984176;28;19941;-60
2022/09/14 08:48:52;;;;;;;;;;;;;;;15.75;82.41;100561.44;4986100;28;19917;-60
2022/09/14 08:51:17;;;;;;;;;;;;;;;15.77;82.73;100564.97;4961074;28;19964;-60
2022/09/14 08:53:43;;;;;;;;;;;;;;;15.76;82.87;100568.47;4989390;28;20305;-60
2022/09/14 08:56:12;;;;;;;;;;;;;;;15.77;82.91;100570.22;4989122;28;19918;-63
2022/09/14 08:58:46;;;;;;;;;;;;;;;15.78;82.89;100577.25;4975775;28;20301;-64
2022/09/14 09:01:18;;;;;;;;;;;;;;;15.80;83.11;100578.13;4977966;28;20001;-64
2022/09/14 09:03:58;;;;;;;;;;;;;;;15.81;82.85;100577.25;4979141;28;20396;-64
2022/09/14 09:06:34;;;;;;;;;;;;;;;15.82;83.31;100578.97;4973247;28;19925;-64
2022/09/14 09:09:16;;;;;;;;;;;;;;;15.84;83.29;100571.09;4983930;28;21300;-64
2022/09/14 09:11:45;;;;;;;;;;;;;;;15.86;82.92;100568.47;4987959;28;19972;-65
2022/09/14 09:14:24;;;;;;;;;;;;;;;15.87;83.39;100570.22;4977473;28;20394;-64
2022/09/14 09:16:52;;;;;;;;;;;;;;;15.88;83.03;100566.72;4978194;28;20007;-64
2022/09/14 09:19:21;;;;;;;;;;;;;;;15.88;83.27;100562.34;4974049;28;20405;-64
2022/09/14 09:21:47;;;;;;;;;;;;;;;15.89;83.19;100571.06;4986474;28;20285;-64
2022/09/14 09:24:15;;;;;;;;;;;;;;;15.90;83.26;100564.97;4972290;28;20132;-64
2022/09/14 09:26:41;;;;;;;;;;;;;;;15.91;83.65;100566.72;4983546;28;20431;-61
2022/09/14 09:29:08;;;;;;;;;;;;;;;15.91;83.41;100569.34;4989053;28;20329;-61
2022/09/14 09:31:38;;;;;;;;;;;;;;;15.90;83.79;100568.47;4972592;28;19917;-60
2022/09/14 09:34:04;;;;;;;;;;;;;;;15.91;83.32;100566.72;4978146;28;19914;-60
2022/09/14 09:36:33;;;;;;;;;;;;;;;15.91;83.32;100564.09;4972947;28;19961;-60
2022/09/14 09:38:58;;;;;;;;;;;;;;;15.90;82.71;100560.59;4971817;28;20374;-60
2022/09/14 09:41:26;;;;;;;;;;;;;;;15.90;83.35;100557.06;4963241;28;19932;-59
2022/09/14 09:44:05;;;;;;;;;;;;;;;15.91;83.43;100557.06;4974428;28;19925;-60
2022/09/14 09:46:36;;;;;;;;;;;;;;;15.92;83.58;100569.34;4975604;28;19960;-60
2022/09/14 09:49:03;;;;;;;;;;;;;;;15.94;83.68;100556.19;4972921;28;20072;-59
2022/09/14 09:51:30;;;;;;;;;;;;;;;15.95;83.84;100558.81;4985097;28;20157;-60
2022/09/14 09:54:08;;;;;;;;;;;;;;;15.94;83.71;100556.19;4969843;28;20389;-60
2022/09/14 09:56:35;;;;;;;;;;;;;;;15.94;83.19;100559.69;4979797;28;19924;-60
2022/09/14 09:59:01;;;;;;;;;;;;;;;15.95;83.42;100574.56;4975691;28;20162;-59
2022/09/14 10:01:26;;;;;;;;;;;;;;;15.94;83.92;100567.56;4977265;28;20504;-59
2022/09/14 10:04:03;;;;;;;;;;;;;;;15.96;83.75;100562.31;4978568;28;20000;-59
2022/09/14 10:06:29;;;;;;;;;;;;;;;15.97;83.88;100562.31;4977384;28;19913;-59
2022/09/14 10:08:56;;;;;;;;;;;;;;;15.99;83.57;100562.31;4976871;28;19940;-59
2022/09/14 10:11:29;;;;;;;;;;;;;;;16.01;84.21;100568.44;4985920;28;19941;-60
2022/09/14 10:13:55;;;;;;;;;;;;;;;16.04;84.52;100570.19;4987446;28;19922;-59
2022/09/14 10:16:20;;;;;;;;;;;;;;;16.04;84.45;100572.81;4974717;28;19949;-59
2022/09/14 10:18:47;;;;;;;;;;;;;;;16.04;84.48;100571.03;4974054;28;19914;-60
2022/09/14 10:21:14;;;;;;;;;;;;;;;16.05;83.80;100564.03;4938245;28;19914;-60
2022/09/14 10:23:39;;;;;;;;;;;;;;;16.04;83.36;100562.28;4983459;28;20337;-60
2022/09/14 10:26:10;;;;;;;;;;;;;;;16.02;83.91;100562.31;4985326;28;20395;-60
2022/09/14 10:28:36;;;;;;;;;;;;;;;16.01;83.88;100557.06;4971384;28;20012;-63
2022/09/14 10:31:14;;;;;;;;;;;;;;;16.01;83.68;100554.44;4978059;28;19967;-63
2022/09/14 10:33:40;;;;;;;;;;;;;;;16.00;83.75;100564.03;4975766;28;19914;-63
2022/09/14 10:36:28;;;;;;;;;;;;;;;15.99;84.42;100557.06;4977348;28;20435;-63
2022/09/14 10:39:13;;;;;;;;;;;;;;;15.99;83.94;100560.56;4976176;28;19925;-63
2022/09/14 10:42:02;;;;;;;;;;;;;;;16.02;84.20;100556.16;4977904;28;19917;-63
2022/09/14 10:44:44;;;;;;;;;;;;;;;16.02;84.10;100558.78;4979130;28;19918;-63
2022/09/14 10:47:35;;;;;;;;;;;;;;;16.03;83.61;100556.16;4985977;28;19913;-65
2022/09/14 10:50:10;;;;;;;;;;;;;;;16.02;83.59;100553.53;4970558;28;20369;-64
2022/09/14 10:52:46;;;;;;;;;;;;;;;16.02;83.89;100562.31;4972578;28;19953;-65
2022/09/14 10:55:34;;;;;;;;;;;;;;;16.02;83.83;100554.41;4956634;28;20293;-63
2022/09/14 10:58:16;;;;;;;;;;;;;;;16.01;84.27;100546.53;4990076;28;19922;-63
2022/09/14 11:00:47;;;;;;;;;;;;;;;16.02;83.47;100538.66;4976641;28;19922;-64
2022/09/14 11:03:13;;;;;;;;;;;;;;;16.01;84.08;100555.28;4971334;28;19914;-63
2022/09/14 11:05:58;;;;;;;;;;;;;;;16.01;84.09;100550.03;4979278;28;19996;-63
2022/09/14 11:08:29;;;;;;;;;;;;;;;16.02;84.17;100543.91;4925733;28;20338;-63
2022/09/14 11:11:21;;;;;;;;;;;;;;;16.03;84.18;100552.66;4991603;28;20328;-63
2022/09/14 11:13:50;;;;;;;;;;;;;;;16.05;84.07;100541.25;4969982;28;19972;-63
2022/09/14 11:16:23;;;;;;;;;;;;;;;16.06;83.91;100550.91;4975710;28;20005;-64
2022/09/14 11:18:58;;;;;;;;;;;;;;;16.07;83.61;100546.50;4976175;28;20321;-64
2022/09/14 11:21:41;;;;;;;;;;;;;;;16.08;84.03;100543.88;4979492;28;19948;-64
2022/09/14 11:24:25;;;;;;;;;;;;;;;16.11;84.07;100537.75;4976208;28;19918;-64
2022/09/14 11:26:53;;;;;;;;;;;;;;;16.10;83.88;100528.09;4963363;28;19914;-64
2022/09/14 11:29:24;;;;;;;;;;;;;;;16.11;84.08;100532.47;4979756;28;19914;-64
2022/09/14 11:32:22;;;;;;;;;;;;;;;16.10;84.15;100531.59;4980303;28;19928;-63
2022/09/14 11:34:53;;;;;;;;;;;;;;;16.09;83.88;100529.88;4943816;28;19972;-63
2022/09/14 11:37:22;;;;;;;;;;;;;;;16.09;83.81;100524.59;4982089;28;20328;-64
2022/09/14 11:39:54;;;;;;;;;;;;;;;16.07;84.04;100526.34;4982296;28;19918;-64
2022/09/14 11:42:22;;;;;;;;;;;;;;;16.08;84.25;100529.88;4979947;28;19913;-63
2022/09/14 11:44:50;;;;;;;;;;;;;;;16.07;84.34;100528.97;4972342;28;19914;-65
2022/09/14 11:47:17;;;;;;;;;;;;;;;16.09;83.95;100523.72;4981545;28;19968;-64
2022/09/14 11:50:00;;;;;;;;;;;;;;;16.09;83.75;100532.50;4975837;28;20391;-64
2022/09/14 11:52:27;;;;;;;;;;;;;;;16.09;84.14;100527.22;4971544;28;19918;-64
2022/09/14 11:54:53;;;;;;;;;;;;;;;16.10;84.28;100521.06;4975059;28;19971;-64
2022/09/14 11:57:29;;;;;;;;;;;;;;;16.11;84.08;100529.84;4982389;28;19992;-61
2022/09/14 11:59:54;;;;;;;;;;;;;;;16.10;83.96;100542.09;4983355;28;19913;-61
2022/09/14 12:02:22;;;;;;;;;;;;;;;16.09;83.79;100539.47;4981817;28;20345;-61
2022/09/14 12:05:06;;;;;;;;;;;;;;;16.07;83.88;100539.50;4981218;28;19920;-60
2022/09/14 12:07:46;;;;;;;;;;;;;;;16.07;83.96;100552.63;4985291;28;19917;-61
2022/09/14 12:10:14;;;;;;;;;;;;;;;16.07;84.04;100542.13;4974745;28;19924;-60
2022/09/14 12:12:55;;;;;;;;;;;;;;;16.07;83.56;100533.38;4977635;28;19922;-60
2022/09/14 12:15:31;;;;;;;;;;;;;;;16.04;83.62;100531.63;4982763;28;20195;-60
2022/09/14 12:18:05;;;;;;;;;;;;;;;16.02;83.56;100532.50;4974204;28;19921;-60
2022/09/14 12:20:37;;;;;;;;;;;;;;;16.01;83.79;100526.38;4976843;28;19985;-60
2022/09/14 12:23:05;;;;;;;;;;;;;;;16.01;83.37;100528.16;4979501;28;19918;-61
2022/09/14 12:25:31;;;;;;;;;;;;;;;16.01;83.60;100533.41;4977840;28;19914;-61
2022/09/14 12:27:56;;;;;;;;;;;;;;;16.01;83.86;100530.78;4978994;28;20012;-61
2022/09/14 12:30:39;;;;;;;;;;;;;;;16.01;83.57;100536.03;4981114;28;22126;-60
2022/09/14 12:33:25;;;;;;;;;;;;;;;16.00;83.65;100535.13;4985557;28;19920;-60
2022/09/14 12:35:50;;;;;;;;;;;;;;;16.02;83.54;100532.50;4916737;28;19950;-61
2022/09/14 12:38:30;;;;;;;;;;;;;;;16.02;83.47;100524.63;4985073;28;20412;-61
2022/09/14 12:41:01;;;;;;;;;;;;;;;16.01;83.54;100530.78;4990124;28;19920;-61
2022/09/14 12:43:36;;;;;;;;;;;;;;;15.99;83.53;100521.13;4979136;28;20241;-61